Time;durP1;ratioP1;P1;durP2;ratioP2;P2;SDS_P1;SDS_P2;PMS_P1;PMS_P2;Temp;Humidity;BMP_temperature;BMP_pressure;BME280_temperature;BME280_humidity;BME280_pressure;Samples;Min_cycle;Max_cycle;Signal;HPM_P1;HPM_P2
2022/04/15 00:01:48;;;;;;;33.28;19.80;;;;;;;;;;5012197;28;20018;-77
2022/04/15 00:04:13;;;;;;;32.80;19.67;;;;;;;;;;5010707;28;20022;-79
2022/04/15 00:06:38;;;;;;;37.92;18.75;;;;;;;;;;5012106;28;20022;-81
2022/04/15 00:09:04;;;;;;;30.75;20.23;;;;;;;;;;5012131;28;20076;-78
2022/04/15 00:11:31;;;;;;;33.53;19.80;;;;;;;;;;5011997;28;20029;-77
2022/04/15 00:13:56;;;;;;;32.97;19.10;;;;;;;;;;5012080;28;20018;-77
2022/04/15 00:16:21;;;;;;;33.97;19.23;;;;;;;;;;5011927;28;20084;-79
2022/04/15 00:18:47;;;;;;;31.27;18.35;;;;;;;;;;5011926;28;20022;-80
2022/04/15 00:21:12;;;;;;;33.63;19.33;;;;;;;;;;5010559;28;20022;-79
2022/04/15 00:23:38;;;;;;;30.00;18.23;;;;;;;;;;5010887;28;20033;-81
2022/04/15 00:26:04;;;;;;;31.77;18.75;;;;;;;;;;5010637;28;20393;-79
2022/04/15 00:28:29;;;;;;;32.33;19.05;;;;;;;;;;5011786;28;20022;-79
2022/04/15 00:30:54;;;;;;;33.40;19.77;;;;;;;;;;5011933;28;20113;-79
2022/04/15 00:33:21;;;;;;;30.90;19.17;;;;;;;;;;5011555;28;20025;-79
2022/04/15 00:35:46;;;;;;;30.85;18.85;;;;;;;;;;5010440;28;20018;-78
2022/04/15 00:38:12;;;;;;;32.47;18.65;;;;;;;;;;5011984;28;20022;-80
2022/04/15 00:40:37;;;;;;;30.88;18.02;;;;;;;;;;5011606;28;20018;-77
2022/04/15 00:43:02;;;;;;;31.80;18.95;;;;;;;;;;5011592;28;20041;-78
2022/04/15 00:45:28;;;;;;;27.35;16.65;;;;;;;;;;5012151;28;20354;-78
2022/04/15 00:47:53;;;;;;;39.90;19.27;;;;;;;;;;5011786;28;20093;-78
2022/04/15 00:50:23;;;;;;;30.98;18.17;;;;;;;;;;5011942;28;20117;-79
2022/04/15 00:52:50;;;;;;;31.77;17.70;;;;;;;;;;5011538;28;20469;-78
2022/04/15 00:55:16;;;;;;;29.15;16.98;;;;;;;;;;5010195;28;20028;-79
2022/04/15 00:57:44;;;;;;;28.90;17.42;;;;;;;;;;5011828;28;20106;-78
2022/04/15 01:00:11;;;;;;;32.70;18.73;;;;;;;;;;5011669;28;20194;-79
2022/04/15 01:02:36;;;;;;;33.42;18.17;;;;;;;;;;5011355;28;20305;-78
2022/04/15 01:05:03;;;;;;;32.22;18.67;;;;;;;;;;5011563;28;20477;-79
2022/04/15 01:07:32;;;;;;;30.60;18.33;;;;;;;;;;5011473;28;20057;-77
2022/04/15 01:09:58;;;;;;;34.50;19.20;;;;;;;;;;5011436;28;20149;-78
2022/04/15 01:12:27;;;;;;;31.83;18.00;;;;;;;;;;5013824;28;20057;-78
2022/04/15 01:14:52;;;;;;;31.92;18.65;;;;;;;;;;5013465;28;20022;-77
2022/04/15 01:17:18;;;;;;;33.17;17.13;;;;;;;;;;5013615;28;20136;-78
2022/04/15 01:19:43;;;;;;;31.00;18.17;;;;;;;;;;5014961;28;20014;-77
2022/04/15 01:22:09;;;;;;;31.88;18.08;;;;;;;;;;5014664;28;20837;-78
2022/04/15 01:24:38;;;;;;;28.23;18.27;;;;;;;;;;5014616;28;20021;-78
2022/04/15 01:27:03;;;;;;;29.75;18.23;;;;;;;;;;5013382;28;20024;-78
2022/04/15 01:29:35;;;;;;;28.17;16.48;;;;;;;;;;5014552;28;20030;-79
2022/04/15 01:32:03;;;;;;;29.15;17.88;;;;;;;;;;5014599;28;20089;-77
2022/04/15 01:34:28;;;;;;;31.08;18.52;;;;;;;;;;5013112;28;20048;-77
2022/04/15 01:36:54;;;;;;;29.83;18.58;;;;;;;;;;5014446;28;20066;-78
2022/04/15 01:39:19;;;;;;;30.77;17.90;;;;;;;;;;5014439;28;20053;-77
2022/04/15 01:41:44;;;;;;;31.20;17.65;;;;;;;;;;5014306;28;20517;-78
2022/04/15 01:44:15;;;;;;;33.55;18.08;;;;;;;;;;5013886;28;20469;-79
2022/04/15 01:46:43;;;;;;;32.97;17.48;;;;;;;;;;5014379;28;20381;-77
2022/04/15 01:49:09;;;;;;;32.03;16.67;;;;;;;;;;5013135;28;20429;-77
2022/04/15 01:51:35;;;;;;;30.10;18.08;;;;;;;;;;4996539;28;20022;-78
2022/04/15 01:54:00;;;;;;;29.83;18.13;;;;;;;;;;5014080;28;20026;-78
2022/04/15 01:56:25;;;;;;;31.65;17.42;;;;;;;;;;5012796;28;20030;-77
2022/04/15 01:58:50;;;;;;;31.23;17.60;;;;;;;;;;5012874;28;20440;-79
2022/04/15 02:01:16;;;;;;;33.13;17.30;;;;;;;;;;5014016;28;20465;-78
2022/04/15 02:03:41;;;;;;;27.23;16.80;;;;;;;;;;5013967;28;20057;-80
2022/04/15 02:06:06;;;;;;;32.33;17.80;;;;;;;;;;5013289;28;20013;-79
2022/04/15 02:08:31;;;;;;;30.50;17.60;;;;;;;;;;5013980;28;20489;-78
2022/04/15 02:10:56;;;;;;;33.03;17.85;;;;;;;;;;5013843;28;20531;-79
2022/04/15 02:13:21;;;;;;;29.55;17.30;;;;;;;;;;5012452;28;20025;-79
2022/04/15 02:15:47;;;;;;;27.67;17.13;;;;;;;;;;5012462;28;20022;-79
2022/04/15 02:18:13;;;;;;;28.52;16.48;;;;;;;;;;5013865;28;20521;-79
2022/04/15 02:20:38;;;;;;;29.88;17.35;;;;;;;;;;5013745;28;20029;-79
2022/04/15 02:23:03;;;;;;;27.48;17.80;;;;;;;;;;5013183;28;20030;-78
2022/04/15 02:25:28;;;;;;;25.98;16.40;;;;;;;;;;5012455;28;20385;-78
2022/04/15 02:27:54;;;;;;;29.38;17.25;;;;;;;;;;5012166;28;20014;-78
2022/04/15 02:30:19;;;;;;;29.50;16.08;;;;;;;;;;5012309;28;20243;-78
2022/04/15 02:32:45;;;;;;;25.45;15.43;;;;;;;;;;5013590;28;20739;-78
2022/04/15 02:35:10;;;;;;;29.48;17.50;;;;;;;;;;5013708;28;20598;-79
2022/04/15 02:37:35;;;;;;;25.70;15.95;;;;;;;;;;5013361;28;20437;-78
2022/04/15 02:40:01;;;;;;;27.08;15.55;;;;;;;;;;5013594;28;20029;-79
2022/04/15 02:42:27;;;;;;;25.17;15.70;;;;;;;;;;5011978;28;20109;-78
2022/04/15 02:44:52;;;;;;;24.10;14.55;;;;;;;;;;5013203;28;20029;-78
2022/04/15 02:47:18;;;;;;;23.30;14.52;;;;;;;;;;5013516;28;20021;-78
2022/04/15 02:49:45;;;;;;;22.67;14.05;;;;;;;;;;5013306;28;20353;-78
2022/04/15 02:52:11;;;;;;;22.25;13.75;;;;;;;;;;5013135;28;20022;-79
2022/04/15 02:54:36;;;;;;;20.70;12.52;;;;;;;;;;5011649;28;20076;-78
2022/04/15 02:57:02;;;;;;;18.42;11.88;;;;;;;;;;5013047;28;20018;-79
2022/04/15 02:59:27;;;;;;;20.50;12.13;;;;;;;;;;5013117;28;20017;-79
2022/04/15 03:01:52;;;;;;;18.73;11.38;;;;;;;;;;5013077;28;20022;-79
2022/04/15 03:04:17;;;;;;;18.98;10.80;;;;;;;;;;5011685;28;20496;-79
2022/04/15 03:06:42;;;;;;;17.02;9.90;;;;;;;;;;5013005;28;20049;-79
2022/04/15 03:09:08;;;;;;;18.58;10.93;;;;;;;;;;5012985;28;20499;-78
2022/04/15 03:11:36;;;;;;;18.98;10.77;;;;;;;;;;5011457;28;20108;-79
2022/04/15 03:14:02;;;;;;;16.02;9.52;;;;;;;;;;5012821;28;20014;-79
2022/04/15 03:16:27;;;;;;;18.08;9.95;;;;;;;;;;5013724;28;20492;-79
2022/04/15 03:18:52;;;;;;;18.50;10.45;;;;;;;;;;5012819;28;20026;-79
2022/04/15 03:21:18;;;;;;;19.70;10.45;;;;;;;;;;5012634;28;20156;-79
2022/04/15 03:23:43;;;;;;;21.02;11.73;;;;;;;;;;5012569;28;20077;-79
2022/04/15 03:26:08;;;;;;;17.65;10.73;;;;;;;;;;5012624;28;20560;-80
2022/04/15 03:28:33;;;;;;;17.77;11.15;;;;;;;;;;5012693;28;20032;-80
2022/04/15 03:30:59;;;;;;;17.85;11.00;;;;;;;;;;5012596;28;20474;-79
2022/04/15 03:33:24;;;;;;;18.08;11.35;;;;;;;;;;5012100;28;20037;-78
2022/04/15 03:35:49;;;;;;;14.10;9.73;;;;;;;;;;5010958;28;20108;-78
2022/04/15 03:38:14;;;;;;;23.70;12.45;;;;;;;;;;5011208;28;20436;-79
2022/04/15 03:40:39;;;;;;;17.50;10.60;;;;;;;;;;5011273;28;20018;-78
2022/04/15 03:43:04;;;;;;;16.67;10.68;;;;;;;;;;5012412;28;20116;-81
2022/04/15 03:45:30;;;;;;;19.73;11.40;;;;;;;;;;5012669;28;20474;-79
2022/04/15 03:47:55;;;;;;;20.85;11.50;;;;;;;;;;5012506;28;20014;-78
2022/04/15 03:50:21;;;;;;;15.77;10.02;;;;;;;;;;5012621;28;20022;-79
2022/04/15 03:52:47;;;;;;;19.02;11.52;;;;;;;;;;5012285;28;20362;-78
2022/04/15 03:55:13;;;;;;;19.67;10.45;;;;;;;;;;5012259;28;20018;-80
2022/04/15 03:57:39;;;;;;;18.42;11.15;;;;;;;;;;5012544;28;20453;-79
2022/04/15 04:00:05;;;;;;;18.20;10.60;;;;;;;;;;5012349;28;20029;-80
2022/04/15 04:02:30;;;;;;;17.08;10.43;;;;;;;;;;5012594;28;20359;-79
2022/04/15 04:04:55;;;;;;;19.48;11.35;;;;;;;;;;5012457;28;20024;-79
2022/04/15 04:07:21;;;;;;;19.30;11.07;;;;;;;;;;5012768;28;20022;-79
2022/04/15 04:09:46;;;;;;;18.63;11.13;;;;;;;;;;5015565;28;20906;-79
2022/04/15 04:12:11;;;;;;;20.70;11.20;;;;;;;;;;5036046;28;20026;-79
2022/04/15 04:14:36;;;;;;;14.35;10.27;;;;;;;;;;5035950;28;20025;-79
2022/04/15 04:17:02;;;;;;;18.52;11.13;;;;;;;;;;5032240;28;20029;-80
2022/04/15 04:19:27;;;;;;;18.20;11.00;;;;;;;;;;5035725;28;20053;-79
2022/04/15 04:21:52;;;;;;;17.73;10.93;;;;;;;;;;5033107;28;20314;-79
2022/04/15 04:24:17;;;;;;;21.50;11.87;;;;;;;;;;5031795;28;20268;-80
2022/04/15 04:26:42;;;;;;;20.73;11.18;;;;;;;;;;5036004;28;20251;-79
2022/04/15 04:29:08;;;;;;;19.00;11.55;;;;;;;;;;5025274;28;20389;-79
2022/04/15 04:31:33;;;;;;;21.38;11.60;;;;;;;;;;5013085;28;20057;-79
2022/04/15 04:33:58;;;;;;;18.30;11.43;;;;;;;;;;5012541;28;20018;-80
2022/04/15 04:36:24;;;;;;;18.92;11.38;;;;;;;;;;5012349;28;20358;-78
2022/04/15 04:38:49;;;;;;;22.05;11.18;;;;;;;;;;5012053;28;20022;-79
2022/04/15 04:41:14;;;;;;;16.15;10.55;;;;;;;;;;5012109;28;20022;-80
2022/04/15 04:43:39;;;;;;;17.27;11.18;;;;;;;;;;5010437;28;20465;-80
2022/04/15 04:46:05;;;;;;;16.73;10.45;;;;;;;;;;5014040;28;20022;-80
2022/04/15 04:48:30;;;;;;;19.75;11.10;;;;;;;;;;5015788;28;20022;-78
2022/04/15 04:50:55;;;;;;;14.85;10.20;;;;;;;;;;5015379;28;20033;-78
2022/04/15 04:53:20;;;;;;;18.35;9.77;;;;;;;;;;5015092;28;20056;-78
2022/04/15 04:55:46;;;;;;;18.95;9.13;;;;;;;;;;5015194;28;20029;-78
2022/04/15 04:58:11;;;;;;;14.13;8.65;;;;;;;;;;5014011;28;20477;-79
2022/04/15 05:00:36;;;;;;;14.45;7.80;;;;;;;;;;5015392;28;20044;-78
2022/04/15 05:03:02;;;;;;;13.80;7.80;;;;;;;;;;5015066;28;20101;-78
2022/04/15 05:05:27;;;;;;;16.45;8.20;;;;;;;;;;5015256;28;20014;-78
2022/04/15 05:07:52;;;;;;;12.25;7.32;;;;;;;;;;5015258;28;20503;-78
2022/04/15 05:10:17;;;;;;;14.75;7.15;;;;;;;;;;5015017;28;20022;-79
2022/04/15 05:12:45;;;;;;;13.88;7.78;;;;;;;;;;5014969;28;20473;-78
2022/04/15 05:15:11;;;;;;;14.57;6.95;;;;;;;;;;5015146;28;20041;-79
2022/04/15 05:17:37;;;;;;;14.75;7.35;;;;;;;;;;5013725;28;20033;-79
2022/04/15 05:20:02;;;;;;;11.40;6.70;;;;;;;;;;5015018;28;20018;-77
2022/04/15 05:22:27;;;;;;;11.23;6.63;;;;;;;;;;5013383;28;20034;-78
2022/04/15 05:24:52;;;;;;;13.45;6.75;;;;;;;;;;5014780;28;20539;-79
2022/04/15 05:27:18;;;;;;;11.75;6.70;;;;;;;;;;5014704;28;20481;-78
2022/04/15 05:29:43;;;;;;;11.35;5.88;;;;;;;;;;5014948;28;20022;-80
2022/04/15 05:32:08;;;;;;;11.35;6.28;;;;;;;;;;5014668;28;20481;-78
2022/04/15 05:34:33;;;;;;;13.32;6.53;;;;;;;;;;5015112;28;20477;-79
2022/04/15 05:36:59;;;;;;;11.82;6.38;;;;;;;;;;5013242;28;20028;-80
2022/04/15 05:39:24;;;;;;;14.82;5.82;;;;;;;;;;5013177;28;20018;-79
2022/04/15 05:41:49;;;;;;;10.25;5.70;;;;;;;;;;5014511;28;20017;-77
2022/04/15 05:44:16;;;;;;;10.80;6.07;;;;;;;;;;5018139;28;20014;-79
2022/04/15 05:46:42;;;;;;;11.13;5.97;;;;;;;;;;5019368;28;20524;-78
2022/04/15 05:49:13;;;;;;;9.38;5.78;;;;;;;;;;5013461;28;20021;-78
2022/04/15 05:51:38;;;;;;;10.75;5.82;;;;;;;;;;5014704;28;20032;-79
2022/04/15 05:54:03;;;;;;;8.93;5.78;;;;;;;;;;5014538;28;20104;-78
2022/04/15 05:56:28;;;;;;;13.90;5.72;;;;;;;;;;5014165;28;20018;-79
2022/04/15 05:58:54;;;;;;;13.38;5.93;;;;;;;;;;5014647;28;20058;-78
2022/04/15 06:01:19;;;;;;;10.70;5.68;;;;;;;;;;5013100;28;20033;-79
2022/04/15 06:03:45;;;;;;;10.23;5.32;;;;;;;;;;5014578;28;20485;-79
2022/04/15 06:06:11;;;;;;;9.82;5.50;;;;;;;;;;5013107;28;20029;-78
2022/04/15 06:08:36;;;;;;;9.88;5.25;;;;;;;;;;5014551;28;20109;-79
2022/04/15 06:11:01;;;;;;;8.15;5.15;;;;;;;;;;5015108;28;20432;-77
2022/04/15 06:13:26;;;;;;;11.85;4.95;;;;;;;;;;5014914;28;20022;-78
2022/04/15 06:15:57;;;;;;;10.40;5.15;;;;;;;;;;5015140;28;20018;-78
2022/04/15 06:18:23;;;;;;;12.73;5.68;;;;;;;;;;5014342;28;20029;-81
2022/04/15 06:20:49;;;;;;;10.23;4.43;;;;;;;;;;5013415;28;20100;-81
2022/04/15 06:23:15;;;;;;;9.48;5.30;;;;;;;;;;5013828;28;20073;-80
2022/04/15 06:25:40;;;;;;;9.90;4.75;;;;;;;;;;5014361;28;20535;-78
2022/04/15 06:28:06;;;;;;;9.55;5.22;;;;;;;;;;5013076;28;20385;-79
2022/04/15 06:30:31;;;;;;;10.27;4.95;;;;;;;;;;5014868;28;20030;-79
2022/04/15 06:32:56;;;;;;;7.72;4.60;;;;;;;;;;5013524;28;20017;-78
2022/04/15 06:35:22;;;;;;;7.63;4.50;;;;;;;;;;5013524;28;20013;-79
2022/04/15 06:37:47;;;;;;;8.13;4.30;;;;;;;;;;5014402;28;20022;-78
2022/04/15 06:40:12;;;;;;;7.03;4.30;;;;;;;;;;5013068;28;20049;-79
2022/04/15 06:42:37;;;;;;;7.32;4.22;;;;;;;;;;5012624;28;20022;-78
2022/04/15 06:45:03;;;;;;;8.48;4.50;;;;;;;;;;5013614;28;20017;-78
2022/04/15 06:47:28;;;;;;;10.27;4.63;;;;;;;;;;5011911;28;20022;-79
2022/04/15 06:49:56;;;;;;;10.40;4.55;;;;;;;;;;5013682;28;20029;-80
2022/04/15 06:52:21;;;;;;;8.10;4.22;;;;;;;;;;5013614;28;20369;-79
2022/04/15 06:54:47;;;;;;;12.88;4.70;;;;;;;;;;5013259;28;20017;-78
2022/04/15 06:57:13;;;;;;;8.13;4.07;;;;;;;;;;5012267;28;20106;-78
2022/04/15 06:59:38;;;;;;;6.93;3.88;;;;;;;;;;5012211;28;20480;-80
2022/04/15 07:02:04;;;;;;;6.85;3.60;;;;;;;;;;5015101;28;20485;-78
2022/04/15 07:04:30;;;;;;;6.97;3.67;;;;;;;;;;5015580;28;20021;-81
2022/04/15 07:06:55;;;;;;;7.10;3.88;;;;;;;;;;5017576;28;20036;-80
2022/04/15 07:09:24;;;;;;;4.68;3.25;;;;;;;;;;5012459;28;20080;-79
2022/04/15 07:11:49;;;;;;;6.63;3.50;;;;;;;;;;5011692;28;20054;-81
2022/04/15 07:14:14;;;;;;;5.97;3.08;;;;;;;;;;5012862;28;20108;-81
2022/04/15 07:16:40;;;;;;;6.03;3.13;;;;;;;;;;5012649;28;20461;-80
2022/04/15 07:19:07;;;;;;;7.85;2.90;;;;;;;;;;5012742;28;20433;-80
2022/04/15 07:21:32;;;;;;;6.10;2.70;;;;;;;;;;5012326;28;20072;-79
2022/04/15 07:23:57;;;;;;;9.30;2.63;;;;;;;;;;5012259;28;20406;-79
2022/04/15 07:26:22;;;;;;;3.33;1.90;;;;;;;;;;5012569;28;20029;-79
2022/04/15 07:28:48;;;;;;;4.07;2.55;;;;;;;;;;5012665;28;20548;-78
2022/04/15 07:31:13;;;;;;;5.00;2.40;;;;;;;;;;5011293;28;20028;-78
2022/04/15 07:33:38;;;;;;;4.03;1.83;;;;;;;;;;5011675;28;20018;-79
2022/04/15 07:36:31;;;;;;;5.45;2.00;;;;;;;;;;5011025;28;20084;-79
2022/04/15 07:38:50;;;;;;;3.08;1.48;;;;;;;;;;5012557;28;20132;-79
2022/04/15 07:41:16;;;;;;;3.03;1.70;;;;;;;;;;5011231;28;20128;-78
2022/04/15 07:43:41;;;;;;;5.38;2.33;;;;;;;;;;5012373;28;20010;-77
2022/04/15 07:46:07;;;;;;;3.88;1.90;;;;;;;;;;5012238;28;20100;-78
2022/04/15 07:48:32;;;;;;;4.00;2.20;;;;;;;;;;5011580;28;20080;-78
2022/04/15 07:51:00;;;;;;;3.40;1.70;;;;;;;;;;5011241;28;20025;-81
2022/04/15 07:53:25;;;;;;;4.05;2.05;;;;;;;;;;5010794;28;20465;-80
2022/04/15 07:55:51;;;;;;;8.37;3.03;;;;;;;;;;5012137;28;20068;-80
2022/04/15 07:58:18;;;;;;;4.30;2.15;;;;;;;;;;5012379;28;20306;-80
2022/04/15 08:00:43;;;;;;;3.92;1.60;;;;;;;;;;5012393;28;20100;-79
2022/04/15 08:03:08;;;;;;;4.00;2.13;;;;;;;;;;5010460;28;20045;-78
2022/04/15 08:05:34;;;;;;;3.17;1.90;;;;;;;;;;5012222;28;20022;-80
2022/04/15 08:07:59;;;;;;;5.45;2.38;;;;;;;;;;5012097;28;20578;-79
2022/04/15 08:10:24;;;;;;;5.28;1.70;;;;;;;;;;5012383;28;20017;-78
2022/04/15 08:12:50;;;;;;;4.65;2.08;;;;;;;;;;5010728;28;20113;-79
2022/04/15 08:15:15;;;;;;;3.60;2.30;;;;;;;;;;5013105;28;20022;-80
2022/04/15 08:17:41;;;;;;;3.67;2.10;;;;;;;;;;5012456;28;20079;-82
2022/04/15 08:20:06;;;;;;;3.67;2.25;;;;;;;;;;5015112;28;20504;-80
2022/04/15 08:22:36;;;;;;;5.10;2.00;;;;;;;;;;5101961;23;20038;-91
2022/04/15 08:25:02;;;;;;;3.67;2.20;;;;;;;;;;4965458;28;20038;-91
2022/04/15 08:27:28;;;;;;;3.00;1.80;;;;;;;;;;4966570;28;20018;-90
2022/04/15 08:29:53;;;;;;;5.43;2.28;;;;;;;;;;4965205;28;20089;-90
2022/04/15 08:32:19;;;;;;;4.63;2.20;;;;;;;;;;4972396;28;20037;-90
2022/04/15 08:34:44;;;;;;;4.25;2.10;;;;;;;;;;4984185;28;20027;-90
2022/04/15 08:37:12;;;;;;;4.30;2.10;;;;;;;;;;4983201;28;20106;-90
2022/04/15 08:39:37;;;;;;;4.07;1.90;;;;;;;;;;4984574;28;20101;-91
2022/04/15 08:42:06;;;;;;;5.57;2.15;;;;;;;;;;4984891;28;20112;-92
2022/04/15 08:44:31;;;;;;;;;;;;;;;;;;4984180;28;20093;-92
2022/04/15 08:46:57;;;;;;;3.65;2.03;;;;;;;;;;4981640;28;19905;-91
2022/04/15 08:49:23;;;;;;;5.65;1.80;;;;;;;;;;5001443;28;20267;-90
2022/04/15 08:51:50;;;;;;;2.97;1.70;;;;;;;;;;4981356;28;20026;-87
2022/04/15 08:54:15;;;;;;;2.95;1.80;;;;;;;;;;4982436;28;20022;-90
2022/04/15 08:56:42;;;;;;;4.82;1.70;;;;;;;;;;4982238;28;20073;-91
2022/04/15 08:59:10;;;;;;;21.15;13.02;;;;;;;;;;4982771;28;20076;-90
2022/04/15 09:01:35;;;;;;;6.57;1.73;;;;;;;;;;4982212;28;20018;-91
2022/04/15 09:04:02;;;;;;;2.95;1.55;;;;;;;;;;4982334;28;20492;-90
2022/04/15 09:06:28;;;;;;;3.63;1.70;;;;;;;;;;4981874;28;20085;-89
2022/04/15 09:09:02;;;;;;;3.97;1.50;;;;;;;;;;4981780;28;20022;-90
2022/04/15 09:11:31;;;;;;;2.70;1.45;;;;;;;;;;4981901;28;20019;-90
2022/04/15 09:13:57;;;;;;;4.13;1.80;;;;;;;;;;4981840;28;20121;-90
2022/04/15 09:16:22;;;;;;;4.30;1.65;;;;;;;;;;4999695;28;20054;-90
2022/04/15 09:18:48;;;;;;;4.30;1.27;;;;;;;;;;4983858;28;20022;-90
2022/04/15 09:21:17;;;;;;;2.63;1.40;;;;;;;;;;4982879;28;20427;-89
2022/04/15 09:23:50;;;;;;;3.38;1.50;;;;;;;;;;4981882;28;20030;-89
2022/04/15 09:26:16;;;;;;;2.58;1.15;;;;;;;;;;4982424;28;20018;-90
2022/04/15 09:28:41;;;;;;;3.67;1.30;;;;;;;;;;4982209;28;20027;-89
2022/04/15 09:31:13;;;;;;;4.25;1.75;;;;;;;;;;4982165;28;20161;-91
2022/04/15 09:33:58;;;;;;;3.78;1.27;;;;;;;;;;4980192;28;20038;-91
2022/04/15 09:36:24;;;;;;;3.00;1.35;;;;;;;;;;4981272;28;20121;-90
2022/04/15 09:38:58;;;;;;;2.47;1.38;;;;;;;;;;5000993;28;20065;-90
2022/04/15 09:41:24;;;;;;;3.05;1.13;;;;;;;;;;4983901;28;20029;-90
2022/04/15 09:43:54;;;;;;;2.55;1.30;;;;;;;;;;4984627;28;20486;-89
2022/04/15 09:46:20;;;;;;;2.20;1.10;;;;;;;;;;4983146;28;20029;-90
2022/04/15 09:48:58;;;;;;;2.38;0.93;;;;;;;;;;4982294;28;20026;-89
2022/04/15 09:51:24;;;;;;;1.60;0.93;;;;;;;;;;4981684;28;20026;-90
2022/04/15 09:53:51;;;;;;;3.00;1.25;;;;;;;;;;4982154;28;20386;-90
2022/04/15 09:56:21;;;;;;;1.77;1.10;;;;;;;;;;4982873;28;20086;-90
2022/04/15 09:58:48;;;;;;;1.52;0.95;;;;;;;;;;4980276;28;20023;-90
2022/04/15 10:01:14;;;;;;;2.70;1.20;;;;;;;;;;4979748;28;20010;-90
2022/04/15 10:03:41;;;;;;;1.88;1.00;;;;;;;;;;4980401;28;20018;-90
2022/04/15 10:06:06;;;;;;;2.78;1.02;;;;;;;;;;4982104;28;20524;-89
2022/04/15 10:08:36;;;;;;;2.17;1.00;;;;;;;;;;4983102;28;20110;-90
2022/04/15 10:11:01;;;;;;;2.15;1.13;;;;;;;;;;4986033;28;20027;-89
2022/04/15 10:13:29;;;;;;;1.15;0.95;;;;;;;;;;4980920;28;20468;-89
2022/04/15 10:15:55;;;;;;;7.40;6.35;;;;;;;;;;4981718;28;20076;-90
2022/04/15 10:18:22;;;;;;;2.63;1.40;;;;;;;;;;4979986;28;20030;-89
2022/04/15 10:20:47;;;;;;;2.55;1.35;;;;;;;;;;4980327;28;20508;-89
2022/04/15 10:23:14;;;;;;;2.58;1.30;;;;;;;;;;4980652;28;20058;-90
2022/04/15 10:25:43;;;;;;;2.35;1.52;;;;;;;;;;4983490;28;20021;-90
2022/04/15 10:28:13;;;;;;;2.78;1.65;;;;;;;;;;4980526;28;20053;-90
2022/04/15 10:30:44;;;;;;;3.45;1.60;;;;;;;;;;4980278;28;20531;-90
2022/04/15 10:33:09;;;;;;;2.65;1.50;;;;;;;;;;4999353;28;20026;-89
2022/04/15 10:35:35;;;;;;;2.50;1.60;;;;;;;;;;4979827;28;20078;-89
2022/04/15 10:38:01;;;;;;;3.63;1.50;;;;;;;;;;4980257;28;20485;-90
2022/04/15 10:40:30;;;;;;;2.67;1.50;;;;;;;;;;4986153;28;20034;-90
2022/04/15 10:43:05;;;;;;;3.72;1.95;;;;;;;;;;4981970;28;20046;-89
2022/04/15 10:45:34;;;;;;;3.83;1.60;;;;;;;;;;4983506;28;20101;-89
2022/04/15 10:48:03;;;;;;;2.90;1.60;;;;;;;;;;4979914;28;20548;-89
2022/04/15 10:50:30;;;;;;;2.95;1.63;;;;;;;;;;4980139;28;20025;-88
2022/04/15 10:53:31;;;;;;;2.55;1.50;;;;;;;;;;4979979;28;20478;-90
2022/04/15 10:56:05;;;;;;;3.58;2.00;;;;;;;;;;4981014;28;20019;-88
2022/04/15 10:58:30;;;;;;;4.70;1.85;;;;;;;;;;4985069;28;20281;-87
2022/04/15 11:01:17;;;;;;;3.17;1.45;;;;;;;;;;4982175;28;20026;-87
2022/04/15 11:03:49;;;;;;;3.85;2.10;;;;;;;;;;4982213;28;20032;-88
2022/04/15 11:06:24;;;;;;;4.65;2.00;;;;;;;;;;4979775;28;20026;-88
2022/04/15 11:08:50;;;;;;;3.97;2.17;;;;;;;;;;4978606;28;20026;-88
2022/04/15 11:11:18;;;;;;;3.97;2.20;;;;;;;;;;4979932;28;20493;-88
2022/04/15 11:13:44;;;;;;;3.80;2.10;;;;;;;;;;4984143;28;20034;-88
2022/04/15 11:16:18;;;;;;;4.00;2.05;;;;;;;;;;4980051;28;20482;-88
2022/04/15 11:18:43;;;;;;;3.10;2.00;;;;;;;;;;4996319;28;20493;-87
2022/04/15 11:21:21;;;;;;;5.05;2.10;;;;;;;;;;4987265;28;20082;-89
2022/04/15 11:23:48;;;;;;;4.75;2.28;;;;;;;;;;4981835;28;20478;-88
2022/04/15 11:26:15;;;;;;;4.65;2.17;;;;;;;;;;4980947;28;20065;-89
2022/04/15 11:28:41;;;;;;;5.07;2.75;;;;;;;;;;4980501;28;20023;-89
2022/04/15 11:31:26;;;;;;;4.43;2.17;;;;;;;;;;4977553;28;20085;-89
2022/04/15 11:33:51;;;;;;;5.00;2.65;;;;;;;;;;4983432;28;20027;-89
2022/04/15 11:36:18;;;;;;;4.45;2.75;;;;;;;;;;4978088;28;20457;-89
2022/04/15 11:38:51;;;;;;;4.00;2.30;;;;;;;;;;4981378;28;20036;-89
2022/04/15 11:41:22;;;;;;;3.63;2.33;;;;;;;;;;4995266;28;20037;-89
2022/04/15 11:43:48;;;;;;;3.83;2.50;;;;;;;;;;5000910;28;20014;-89
2022/04/15 11:46:13;;;;;;;3.47;2.28;;;;;;;;;;4995754;28;20019;-89
2022/04/15 11:48:38;;;;;;;6.05;3.90;;;;;;;;;;4979998;28;20023;-89
2022/04/15 11:51:04;;;;;;;4.13;2.30;;;;;;;;;;4983970;28;20023;-89
2022/04/15 11:53:30;;;;;;;3.67;2.33;;;;;;;;;;4980858;28;20536;-89
2022/04/15 11:55:58;;;;;;;4.55;2.60;;;;;;;;;;4983958;28;20509;-89
2022/04/15 11:58:24;;;;;;;5.82;2.50;;;;;;;;;;4980692;28;20025;-89
2022/04/15 12:00:53;;;;;;;4.65;2.72;;;;;;;;;;4980575;28;20018;-88
2022/04/15 12:03:19;;;;;;;5.50;2.55;;;;;;;;;;4983254;28;20014;-88
2022/04/15 12:05:44;;;;;;;4.60;3.10;;;;;;;;;;4979597;28;20109;-89
2022/04/15 12:08:09;;;;;;;5.95;3.17;;;;;;;;;;4984511;28;20025;-89
2022/04/15 12:10:41;;;;;;;4.70;2.80;;;;;;;;;;4982487;28;20023;-88
2022/04/15 12:13:06;;;;;;;4.07;3.00;;;;;;;;;;4983455;28;20020;-89
2022/04/15 12:15:32;;;;;;;5.78;3.10;;;;;;;;;;4984658;28;20058;-89
2022/04/15 12:17:58;;;;;;;5.60;2.90;;;;;;;;;;4985879;28;20034;-89
2022/04/15 12:20:27;;;;;;;5.28;3.65;;;;;;;;;;4983035;28;20014;-89
2022/04/15 12:22:59;;;;;;;4.93;3.03;;;;;;;;;;4986200;28;20042;-89
2022/04/15 12:25:25;;;;;;;8.13;3.95;;;;;;;;;;4977679;28;20029;-88
2022/04/15 12:27:53;;;;;;;5.68;3.22;;;;;;;;;;4979374;28;20022;-88
2022/04/15 12:30:35;;;;;;;4.55;2.83;;;;;;;;;;4981960;28;20033;-85
2022/04/15 12:33:07;;;;;;;5.93;3.67;;;;;;;;;;4985514;28;20026;-89
2022/04/15 12:35:32;;;;;;;5.63;3.20;;;;;;;;;;4993155;28;20035;-89
2022/04/15 12:38:00;;;;;;;5.35;3.35;;;;;;;;;;4994767;28;20036;-89
2022/04/15 12:40:29;;;;;;;6.13;3.03;;;;;;;;;;4994549;28;20054;-89
2022/04/15 12:42:55;;;;;;;5.50;3.25;;;;;;;;;;4987272;28;20022;-88
2022/04/15 12:45:21;;;;;;;5.97;3.40;;;;;;;;;;4981048;28;20178;-88
2022/04/15 12:48:00;;;;;;;6.93;3.38;;;;;;;;;;4980861;28;20022;-89
2022/04/15 12:50:29;;;;;;;7.38;3.58;;;;;;;;;;4981570;28;20030;-89
2022/04/15 12:52:54;;;;;;;7.63;4.28;;;;;;;;;;4981809;28;20037;-89
2022/04/15 12:55:33;;;;;;;6.65;4.32;;;;;;;;;;4984495;28;20046;-88
2022/04/15 12:57:59;;;;;;;5.72;3.90;;;;;;;;;;4982504;28;20022;-89
2022/04/15 13:00:29;;;;;;;6.93;4.13;;;;;;;;;;4980505;28;20022;-89
2022/04/15 13:02:59;;;;;;;9.40;4.43;;;;;;;;;;4980795;28;20034;-88
2022/04/15 13:05:24;;;;;;;7.93;4.07;;;;;;;;;;4981288;28;20023;-88
2022/04/15 13:07:50;;;;;;;6.13;4.13;;;;;;;;;;4979700;28;20034;-88
2022/04/15 13:10:16;;;;;;;6.03;4.22;;;;;;;;;;4999170;28;20030;-88
2022/04/15 13:12:42;;;;;;;8.48;4.47;;;;;;;;;;4982455;28;20023;-86
2022/04/15 13:15:08;;;;;;;6.35;3.92;;;;;;;;;;4982683;28;20466;-87
2022/04/15 13:17:33;;;;;;;5.38;3.88;;;;;;;;;;4984101;28;20030;-88
2022/04/15 13:20:00;;;;;;;6.60;4.00;;;;;;;;;;4982128;28;20509;-87
2022/04/15 13:22:25;;;;;;;6.18;4.25;;;;;;;;;;4982564;28;20022;-88
2022/04/15 13:24:51;;;;;;;6.78;4.28;;;;;;;;;;4983100;28;20452;-91
2022/04/15 13:27:16;;;;;;;7.22;4.25;;;;;;;;;;4984766;28;20025;-89
2022/04/15 13:29:42;;;;;;;6.80;4.13;;;;;;;;;;4981935;28;20022;-89
2022/04/15 13:32:08;;;;;;;9.27;4.22;;;;;;;;;;4982101;28;20029;-90
2022/04/15 13:34:33;;;;;;;8.30;4.72;;;;;;;;;;4990048;28;20477;-89
2022/04/15 13:37:03;;;;;;;7.70;4.60;;;;;;;;;;4990323;28;20682;-89
2022/04/15 13:39:29;;;;;;;7.18;4.18;;;;;;;;;;4989060;28;20014;-89
2022/04/15 13:41:54;;;;;;;7.18;4.47;;;;;;;;;;4988813;28;20057;-88
2022/04/15 13:44:19;;;;;;;7.15;4.70;;;;;;;;;;4995116;28;19999;-88
2022/04/15 13:46:44;;;;;;;6.70;4.60;;;;;;;;;;5000235;28;20030;-87
2022/04/15 13:49:10;;;;;;;8.45;4.72;;;;;;;;;;5000831;28;20021;-90
2022/04/15 13:51:35;;;;;;;7.03;4.38;;;;;;;;;;5001589;28;20010;-89
2022/04/15 13:56:44;;;;;;;8.18;5.13;;;;;;;;;;5017811;28;20061;-88
2022/04/15 13:59:13;;;;;;;8.88;5.13;;;;;;;;;;5002302;28;20018;-89
2022/04/15 14:01:39;;;;;;;10.73;5.07;;;;;;;;;;4998663;28;20027;-89
2022/04/15 14:04:07;;;;;;;9.57;5.20;;;;;;;;;;4983958;28;20409;-90
2022/04/15 14:06:32;;;;;;;9.40;4.80;;;;;;;;;;4982964;28;20049;-90
2022/04/15 14:08:58;;;;;;;9.27;5.20;;;;;;;;;;4983782;28;20474;-90
2022/04/15 14:11:23;;;;;;;8.55;5.50;;;;;;;;;;4986639;28;20461;-90
2022/04/15 14:13:49;;;;;;;8.60;5.22;;;;;;;;;;4985475;28;20470;-89
2022/04/15 14:16:15;;;;;;;10.38;5.82;;;;;;;;;;4992133;28;20035;-89
2022/04/15 14:18:43;;;;;;;7.70;4.97;;;;;;;;;;4984209;28;20046;-89
2022/04/15 14:21:12;;;;;;;7.80;4.55;;;;;;;;;;4986582;28;20030;-90
2022/04/15 14:23:40;;;;;;;7.97;5.25;;;;;;;;;;4999563;23;20038;-89
2022/04/15 14:26:08;;;;;;;10.02;5.07;;;;;;;;;;5007267;28;20023;-89
2022/04/15 14:28:35;;;;;;;6.47;4.45;;;;;;;;;;5006115;28;20031;-90
2022/04/15 14:31:03;;;;;;;9.23;5.07;;;;;;;;;;5007543;28;20022;-89
2022/04/15 14:33:28;;;;;;;7.97;5.22;;;;;;;;;;5010997;28;20489;-89